Wootton, United Kingdom
Current Conditions -  °F | °C
As of 2:50 PM on Friday 19 Dec 2014 (Local Time) from EGTC Reporting Station
Few Clouds Few Clouds  
Wind Chill:   Ceiling: Unl
Heat Index:   Visibility: 6mi
Dew Point:   Wind: 16mph
Humidity: 71%   Direction: 260°W
Pressure: 29.97"   Gusts: NA
Location:  52.1°N, 0.53°W
Report Text: EGTC 191450Z 26014KT 9999 FEW032 08/03 Q1015
Loading
Personal Weather Stations






























Interactive Weather Map New forecast layout! Learn more

10-Day Weather Forecast

Advertisements
Track Severe Weather on mobile